createdAt,value
2017-05-20T00:00:19.694Z,1009.32
2017-05-20T00:05:16.281Z,1009.24
2017-05-20T00:10:12.396Z,1009.31
2017-05-20T00:15:09.475Z,1009.29
2017-05-20T00:20:05.180Z,1009.38
2017-05-20T00:25:01.051Z,1009.43
2017-05-20T00:29:56.826Z,1009.31
2017-05-20T00:34:52.615Z,1009.35
2017-05-20T00:39:48.376Z,1009.36
2017-05-20T00:44:44.067Z,1009.39
2017-05-20T00:49:40.249Z,1009.37
2017-05-20T00:54:35.954Z,1009.38
2017-05-20T00:59:32.045Z,1009.38
2017-05-20T01:04:27.749Z,1009.44
2017-05-20T01:09:24.388Z,1009.49
2017-05-20T01:14:19.847Z,1009.42
2017-05-20T01:19:15.638Z,1009.46
2017-05-20T01:24:11.316Z,1009.48
2017-05-20T01:29:06.912Z,1009.54
2017-05-20T01:34:03.754Z,1009.53
2017-05-20T01:38:59.513Z,1009.57
2017-05-20T01:43:57.428Z,1009.52
2017-05-20T01:48:52.721Z,1009.58
2017-05-20T01:53:48.323Z,1009.58
2017-05-20T01:58:44.327Z,1009.72
2017-05-20T02:03:44.380Z,1009.68
2017-05-20T02:08:42.950Z,1009.63
2017-05-20T02:18:42.864Z,1009.75
2017-05-20T02:28:41.165Z,1009.74
2017-05-20T02:33:37.842Z,1009.81
2017-05-20T02:38:33.779Z,1009.86
2017-05-20T02:43:36.285Z,1009.92
2017-05-20T02:48:32.329Z,1009.98
2017-05-20T02:53:28.006Z,1010.03
2017-05-20T02:58:25.787Z,1010.00
2017-05-20T03:03:24.310Z,1010.10
2017-05-20T03:08:19.788Z,1010.05
2017-05-20T03:13:14.552Z,1010.03
2017-05-20T03:18:17.389Z,1010.09
2017-05-20T03:23:14.619Z,1010.08
2017-05-20T03:28:09.270Z,1010.15
2017-05-20T03:33:06.471Z,1010.14
2017-05-20T03:38:01.780Z,1010.22
2017-05-20T03:42:57.730Z,1010.15
2017-05-20T03:47:53.854Z,1010.24
2017-05-20T03:57:50.311Z,1010.38
2017-05-20T04:02:46.246Z,1010.50
2017-05-20T04:07:42.079Z,1010.53
2017-05-20T04:12:37.734Z,1010.52
2017-05-20T04:17:33.866Z,1010.61
2017-05-20T04:22:30.332Z,1010.78
2017-05-20T04:27:26.477Z,1010.79
2017-05-20T04:32:22.629Z,1010.89
2017-05-20T04:37:19.051Z,1010.93
2017-05-20T04:42:15.166Z,1010.91
2017-05-20T04:47:11.715Z,1011.00
2017-05-20T04:52:07.922Z,1011.11
2017-05-20T04:57:04.586Z,1011.15
2017-05-20T05:02:00.518Z,1011.16
2017-05-20T05:06:56.661Z,1011.15
2017-05-20T05:11:52.655Z,1011.24
2017-05-20T05:16:48.220Z,1011.39
2017-05-20T05:21:44.053Z,1011.45
2017-05-20T05:26:39.851Z,1011.59
2017-05-20T05:31:35.815Z,1011.61
2017-05-20T05:36:31.486Z,1011.57
2017-05-20T05:41:27.595Z,1011.74
2017-05-20T05:46:23.697Z,1011.81
2017-05-20T05:51:19.717Z,1011.83
2017-05-20T05:56:16.558Z,1011.81
2017-05-20T06:01:12.064Z,1011.86
2017-05-20T06:06:07.847Z,1011.87
2017-05-20T06:11:03.537Z,1011.95
2017-05-20T06:15:59.621Z,1011.94
2017-05-20T06:20:55.483Z,1012.06
2017-05-20T06:25:51.800Z,1012.12
2017-05-20T06:30:47.539Z,1012.08
2017-05-20T06:35:43.302Z,1012.08
2017-05-20T06:40:39.077Z,1012.13
2017-05-20T06:45:36.162Z,1012.20
2017-05-20T06:50:32.159Z,1012.27
2017-05-20T06:55:28.266Z,1012.28
2017-05-20T07:00:23.946Z,1012.44
2017-05-20T07:05:19.991Z,1012.55
2017-05-20T07:10:15.762Z,1012.54
2017-05-20T07:15:11.876Z,1012.54
2017-05-20T07:20:12.229Z,1012.66
2017-05-20T07:25:07.236Z,1012.70
2017-05-20T07:30:03.346Z,1012.73
2017-05-20T07:35:01.468Z,1012.73
2017-05-20T07:39:57.365Z,1012.79
2017-05-20T07:44:54.103Z,1012.99
2017-05-20T07:49:50.735Z,1012.93
2017-05-20T07:54:49.382Z,1012.95
2017-05-20T08:04:50.605Z,1012.99
2017-05-20T08:09:47.265Z,1013.03
2017-05-20T08:14:44.535Z,1012.96
2017-05-20T08:19:41.839Z,1012.97
2017-05-20T08:24:38.070Z,1013.06
2017-05-20T08:34:38.293Z,1013.22
2017-05-20T08:39:33.181Z,1013.30
2017-05-20T08:44:29.350Z,1013.33
2017-05-20T08:49:24.932Z,1013.20
2017-05-20T08:54:19.046Z,1013.40
2017-05-20T08:59:14.110Z,1013.63
2017-05-20T09:04:13.122Z,1013.66
2017-05-20T09:09:11.573Z,1013.78
2017-05-20T09:14:08.030Z,1013.50
2017-05-20T09:19:01.547Z,1013.55
2017-05-20T09:23:56.682Z,1013.59
2017-05-20T09:28:51.157Z,1013.57
2017-05-20T09:33:46.235Z,1014.01
2017-05-20T09:38:43.466Z,1013.63
2017-05-20T09:43:41.718Z,1013.87
2017-05-20T09:48:38.908Z,1014.13
2017-05-20T09:53:37.602Z,1014.24
2017-05-20T09:58:40.159Z,1014.00
2017-05-20T10:03:43.732Z,1013.94
2017-05-20T10:08:48.830Z,1014.31
2017-05-20T10:24:08.525Z,1014.08
2017-05-20T10:29:01.124Z,1014.11
2017-05-20T10:33:54.986Z,1014.20
2017-05-20T10:38:50.277Z,1014.26
2017-05-20T10:43:50.416Z,1014.22
2017-05-20T10:48:44.552Z,1014.23
2017-05-20T10:53:45.784Z,1014.34
2017-05-20T10:58:41.489Z,1014.51
2017-05-20T11:03:40.906Z,1014.34
2017-05-20T11:08:41.474Z,1014.41
2017-05-20T11:13:39.997Z,1014.49
2017-05-20T11:18:37.243Z,1014.49
2017-05-20T11:28:33.507Z,1014.37
2017-05-20T11:33:30.262Z,1014.43
2017-05-20T11:38:24.867Z,1014.41
2017-05-20T11:43:19.541Z,1014.41
2017-05-20T11:48:14.955Z,1014.41
2017-05-20T11:53:09.089Z,1014.61
2017-05-20T11:58:05.943Z,1014.70
2017-05-20T12:03:02.699Z,1014.57
2017-05-20T12:07:57.571Z,1014.72
2017-05-20T12:12:53.204Z,1014.73
2017-05-20T12:17:50.189Z,1014.82
2017-05-20T12:22:48.494Z,1014.79
2017-05-20T12:27:43.799Z,1014.79
2017-05-20T12:32:39.349Z,1014.91
2017-05-20T12:37:35.002Z,1014.90
2017-05-20T12:42:31.184Z,1014.86
2017-05-20T12:47:27.793Z,1014.96
2017-05-20T12:52:28.897Z,1014.99
2017-05-20T12:57:26.176Z,1015.06
2017-05-20T13:02:23.292Z,1015.07
2017-05-20T13:07:16.656Z,1014.94
2017-05-20T13:12:13.377Z,1015.07
2017-05-20T13:17:08.551Z,1015.13
2017-05-20T13:22:02.532Z,1015.26
2017-05-20T13:26:58.968Z,1015.28
2017-05-20T13:31:53.952Z,1015.35
2017-05-20T13:36:49.947Z,1015.37
2017-05-20T13:41:46.625Z,1015.39
2017-05-20T13:46:41.812Z,1015.34
2017-05-20T13:51:37.348Z,1015.42
2017-05-20T13:56:32.580Z,1015.54
2017-05-20T14:01:29.065Z,1015.63
2017-05-20T14:06:23.794Z,1015.61
2017-05-20T14:11:20.348Z,1015.55
2017-05-20T14:16:16.128Z,1015.62
2017-05-20T14:21:12.013Z,1015.71
2017-05-20T14:26:08.420Z,1015.79
2017-05-20T14:31:04.148Z,1015.81
2017-05-20T14:36:00.246Z,1015.79
2017-05-20T14:40:55.854Z,1015.71
2017-05-20T14:45:51.302Z,1015.84
2017-05-20T14:50:47.346Z,1015.84
2017-05-20T14:55:43.121Z,1015.89
2017-05-20T15:00:39.086Z,1015.88
2017-05-20T15:05:35.838Z,1015.94
2017-05-20T15:10:31.276Z,1016.00
2017-05-20T15:15:27.197Z,1015.99
2017-05-20T15:20:24.178Z,1016.09
2017-05-20T15:25:19.764Z,1016.06
2017-05-20T15:30:16.321Z,1016.11
2017-05-20T15:35:12.352Z,1016.16
2017-05-20T15:40:09.782Z,1016.12
2017-05-20T15:45:05.451Z,1016.22
2017-05-20T15:50:02.763Z,1016.19
2017-05-20T15:54:57.852Z,1016.23
2017-05-20T15:59:53.588Z,1016.27
2017-05-20T16:04:49.245Z,1016.20
2017-05-20T16:09:45.340Z,1016.28
2017-05-20T16:14:41.173Z,1016.39
2017-05-20T16:24:39.437Z,1016.29
2017-05-20T16:29:38.231Z,1016.36
2017-05-20T16:34:34.248Z,1016.36
2017-05-20T16:39:33.103Z,1016.36
2017-05-20T16:44:29.034Z,1016.46
2017-05-20T16:49:26.429Z,1016.57
2017-05-20T16:54:22.047Z,1016.52
2017-05-20T16:59:19.184Z,1016.61
2017-05-20T17:04:14.599Z,1016.60
2017-05-20T17:09:10.772Z,1016.72
2017-05-20T17:14:07.701Z,1016.72
2017-05-20T17:19:04.175Z,1016.75
2017-05-20T17:23:59.922Z,1016.87
2017-05-20T17:28:58.800Z,1016.86
2017-05-20T17:33:53.675Z,1016.96
2017-05-20T17:38:52.584Z,1016.97
2017-05-20T17:43:48.997Z,1017.07
2017-05-20T17:48:47.504Z,1017.16
2017-05-20T17:53:43.631Z,1017.10
2017-05-20T17:58:42.095Z,1017.19
2017-05-20T18:04:07.391Z,1017.23
2017-05-20T18:08:59.028Z,1017.25
2017-05-20T18:13:54.499Z,1017.25
2017-05-20T18:18:52.320Z,1017.32
2017-05-20T18:23:48.718Z,1017.29
2017-05-20T18:28:45.367Z,1017.41
2017-05-20T18:33:41.279Z,1017.38
2017-05-20T18:38:36.981Z,1017.39
2017-05-20T18:43:32.641Z,1017.41
2017-05-20T18:48:29.310Z,1017.46
2017-05-20T18:53:24.839Z,1017.46
2017-05-20T18:58:24.589Z,1017.53
2017-05-20T19:03:21.012Z,1017.51
2017-05-20T19:08:16.032Z,1017.66
2017-05-20T19:13:12.908Z,1017.65
2017-05-20T19:18:08.286Z,1017.68
2017-05-20T19:23:05.090Z,1017.85
2017-05-20T19:28:00.503Z,1017.88
2017-05-20T19:32:56.616Z,1017.92
2017-05-20T19:37:52.462Z,1018.08
2017-05-20T19:42:48.203Z,1018.15
2017-05-20T19:47:44.080Z,1018.18
2017-05-20T19:52:39.842Z,1018.18
2017-05-20T19:57:38.055Z,1018.27
2017-05-20T20:02:33.095Z,1018.31
2017-05-20T20:07:30.567Z,1018.28
2017-05-20T20:12:25.999Z,1018.41
2017-05-20T20:17:22.574Z,1018.39
2017-05-20T20:22:19.535Z,1018.48
2017-05-20T20:27:15.372Z,1018.47
2017-05-20T20:32:11.291Z,1018.51
2017-05-20T20:37:06.920Z,1018.59
2017-05-20T20:42:02.542Z,1018.55
2017-05-20T20:46:58.609Z,1018.57
2017-05-20T20:51:54.439Z,1018.67
2017-05-20T20:56:50.663Z,1018.54
2017-05-20T21:01:46.618Z,1018.61
2017-05-20T21:06:42.562Z,1018.55
2017-05-20T21:11:39.361Z,1018.65
2017-05-20T21:16:35.070Z,1018.64
2017-05-20T21:21:31.233Z,1018.67
2017-05-20T21:26:26.626Z,1018.64
2017-05-20T21:31:22.883Z,1018.71
2017-05-20T21:36:18.801Z,1018.76
2017-05-20T21:41:18.278Z,1018.75
2017-05-20T21:46:14.612Z,1018.81
2017-05-20T21:51:09.947Z,1018.87
2017-05-20T21:56:05.797Z,1018.87
2017-05-20T22:01:01.595Z,1018.88
2017-05-20T22:05:57.424Z,1019.07
2017-05-20T22:10:53.140Z,1019.08
2017-05-20T22:15:49.147Z,1019.09
2017-05-20T22:20:44.911Z,1019.15
2017-05-20T22:25:42.251Z,1019.13
2017-05-20T22:30:37.827Z,1019.10
2017-05-20T22:35:36.188Z,1019.16
2017-05-20T22:40:31.386Z,1019.18
2017-05-20T22:45:27.217Z,1019.23
2017-05-20T22:50:23.163Z,1019.32
2017-05-20T22:55:19.106Z,1019.34
2017-05-20T23:00:14.944Z,1019.39
2017-05-20T23:05:10.678Z,1019.43
2017-05-20T23:10:06.804Z,1019.33
2017-05-20T23:15:02.653Z,1019.43
2017-05-20T23:19:58.360Z,1019.50
2017-05-20T23:24:54.054Z,1019.57
2017-05-20T23:29:50.098Z,1019.47
2017-05-20T23:34:45.852Z,1019.45
2017-05-20T23:39:42.252Z,1019.49
2017-05-20T23:44:37.767Z,1019.49
2017-05-20T23:49:33.585Z,1019.49
2017-05-20T23:54:29.531Z,1019.52
2017-05-20T23:59:25.296Z,1019.54
